createdAt,value
2017-08-06T00:01:02.726Z,26.38
2017-08-06T00:02:12.281Z,26.33
2017-08-06T00:03:21.514Z,26.41
2017-08-06T00:04:30.414Z,26.29
2017-08-06T00:05:39.318Z,26.4
2017-08-06T00:06:48.224Z,26.33
2017-08-06T00:07:57.132Z,26.35
2017-08-06T00:09:06.035Z,26.29
2017-08-06T00:10:14.942Z,26.31
2017-08-06T00:11:23.843Z,26.29
2017-08-06T00:12:32.760Z,26.33
2017-08-06T00:13:41.666Z,26.26
2017-08-06T00:14:50.577Z,26.41
2017-08-06T00:15:59.478Z,26.35
2017-08-06T00:17:08.403Z,26.38
2017-08-06T00:18:17.304Z,26.32
2017-08-06T00:19:26.204Z,26.32
2017-08-06T00:20:35.109Z,26.38
2017-08-06T00:21:44.336Z,26.33
2017-08-06T00:22:53.252Z,26.29
2017-08-06T00:24:02.162Z,26.32
2017-08-06T00:25:11.708Z,26.33
2017-08-06T00:26:20.606Z,26.29
2017-08-06T00:27:29.517Z,26.33
2017-08-06T00:28:38.423Z,26.25
2017-08-06T00:29:47.326Z,26.33
2017-08-06T00:30:56.229Z,26.28
2017-08-06T00:32:05.450Z,26.33
2017-08-06T00:33:14.668Z,26.29
2017-08-06T00:34:23.573Z,26.29
2017-08-06T00:35:32.478Z,26.22
2017-08-06T00:36:41.385Z,26.29
2017-08-06T00:37:50.289Z,26.25
2017-08-06T00:38:59.195Z,26.28
2017-08-06T00:40:08.095Z,26.36
2017-08-06T00:41:17.001Z,26.28
2017-08-06T00:42:26.230Z,26.32
2017-08-06T00:43:35.138Z,26.25
2017-08-06T00:44:44.034Z,26.28
2017-08-06T00:45:52.953Z,26.29
2017-08-06T00:47:02.172Z,26.29
2017-08-06T00:48:11.399Z,26.21
2017-08-06T00:49:20.302Z,26.28
2017-08-06T00:50:29.207Z,26.26
2017-08-06T00:51:38.109Z,26.33
2017-08-06T00:52:47.341Z,26.28
2017-08-06T00:53:56.249Z,26.18
2017-08-06T00:55:05.156Z,26.26
2017-08-06T00:56:14.076Z,26.16
2017-08-06T00:57:22.979Z,26.18
2017-08-06T00:58:31.880Z,26.22
2017-08-06T00:59:40.787Z,26.21
2017-08-06T01:00:49.685Z,26.16
2017-08-06T01:01:58.589Z,26.25
2017-08-06T01:03:07.508Z,26.23
2017-08-06T01:04:16.404Z,26.22
2017-08-06T01:05:25.315Z,26.25
2017-08-06T01:06:34.213Z,26.21
2017-08-06T01:07:43.120Z,26.25
2017-08-06T01:08:52.337Z,26.18
2017-08-06T01:10:01.249Z,26.21
2017-08-06T01:11:10.157Z,26.21
2017-08-06T01:12:19.061Z,26.25
2017-08-06T01:13:27.964Z,26.21
2017-08-06T01:14:36.868Z,26.17
2017-08-06T01:15:45.766Z,26.09
2017-08-06T01:16:54.668Z,26.22
2017-08-06T01:18:03.574Z,26.21
2017-08-06T01:19:12.475Z,26.09
2017-08-06T01:20:21.697Z,26.17
2017-08-06T01:21:30.596Z,26.16
2017-08-06T01:22:39.500Z,26.09
2017-08-06T01:23:48.400Z,26.13
2017-08-06T01:24:57.632Z,26.09
2017-08-06T01:26:06.855Z,26.21
2017-08-06T01:27:15.765Z,26.12
2017-08-06T01:28:24.675Z,26.09
2017-08-06T01:29:33.578Z,26.12
2017-08-06T01:30:42.477Z,26.17
2017-08-06T01:31:51.697Z,26.07
2017-08-06T01:33:00.604Z,26.1
2017-08-06T01:34:09.520Z,26.13
2017-08-06T01:35:18.754Z,26.09
2017-08-06T01:36:27.975Z,26.12
2017-08-06T01:37:36.883Z,26.12
2017-08-06T01:38:45.782Z,26.1
2017-08-06T01:39:54.688Z,26.05
2017-08-06T01:41:03.589Z,26.06
2017-08-06T01:42:12.499Z,26.06
2017-08-06T01:43:21.409Z,26.1
2017-08-06T01:44:30.305Z,26.09
2017-08-06T01:45:39.215Z,26.05
2017-08-06T01:46:48.118Z,26.07
2017-08-06T01:47:57.019Z,26.06
2017-08-06T01:49:05.917Z,26.12
2017-08-06T01:50:14.817Z,26.1
2017-08-06T01:51:23.724Z,26.05
2017-08-06T01:52:32.954Z,26.06
2017-08-06T01:53:42.179Z,26.07
2017-08-06T01:54:51.077Z,26.03
2017-08-06T01:55:59.987Z,26.03
2017-08-06T01:57:08.905Z,26.07
2017-08-06T01:58:17.816Z,26.02
2017-08-06T01:59:26.715Z,25.98
2017-08-06T02:00:35.622Z,26.03
2017-08-06T02:01:44.519Z,26.13
2017-08-06T02:02:53.424Z,26.03
2017-08-06T02:04:02.331Z,26.12
2017-08-06T02:05:11.245Z,26.09
2017-08-06T02:06:20.151Z,25.95
2017-08-06T02:07:29.067Z,25.97
2017-08-06T02:08:38.292Z,26
2017-08-06T02:09:47.194Z,25.95
2017-08-06T02:10:56.096Z,26
2017-08-06T02:12:04.995Z,25.97
2017-08-06T02:13:13.901Z,25.98
2017-08-06T02:14:22.811Z,25.95
2017-08-06T02:15:31.716Z,25.97
2017-08-06T02:16:40.614Z,26.03
2017-08-06T02:17:49.521Z,25.97
2017-08-06T02:18:58.422Z,25.98
2017-08-06T02:20:07.326Z,26
2017-08-06T02:21:16.232Z,26.02
2017-08-06T02:22:25.460Z,26
2017-08-06T02:23:34.365Z,25.97
2017-08-06T02:24:43.282Z,25.97
2017-08-06T02:25:52.184Z,25.95
2017-08-06T02:27:01.084Z,25.94
2017-08-06T02:28:09.988Z,25.97
2017-08-06T02:29:18.888Z,25.95
2017-08-06T02:30:27.789Z,26.02
2017-08-06T02:31:36.691Z,25.85
2017-08-06T02:32:45.602Z,25.92
2017-08-06T02:33:54.828Z,25.95
2017-08-06T02:35:04.061Z,25.95
2017-08-06T02:36:13.289Z,25.94
2017-08-06T02:37:22.196Z,25.95
2017-08-06T02:38:31.109Z,25.88
2017-08-06T02:39:40.016Z,25.9
2017-08-06T02:40:48.918Z,25.95
2017-08-06T02:41:57.822Z,25.9
2017-08-06T02:43:06.733Z,25.94
2017-08-06T02:44:15.631Z,25.85
2017-08-06T02:45:24.533Z,25.88
2017-08-06T02:46:33.446Z,25.85
2017-08-06T02:47:42.349Z,25.9
2017-08-06T02:48:51.583Z,25.91
2017-08-06T02:50:00.488Z,25.9
2017-08-06T02:51:09.397Z,25.87
2017-08-06T02:52:18.636Z,25.85
2017-08-06T02:53:27.557Z,25.91
2017-08-06T02:54:36.461Z,25.88
2017-08-06T02:55:45.371Z,25.85
2017-08-06T02:56:54.270Z,25.9
2017-08-06T02:58:03.172Z,25.87
2017-08-06T02:59:12.398Z,25.92
2017-08-06T03:00:21.303Z,25.79
2017-08-06T03:01:30.530Z,25.85
2017-08-06T03:02:39.435Z,25.85
2017-08-06T03:03:48.662Z,25.85
2017-08-06T03:04:57.560Z,25.75
2017-08-06T03:06:06.462Z,25.9
2017-08-06T03:07:15.369Z,25.85
2017-08-06T03:08:24.915Z,25.84
2017-08-06T03:09:33.828Z,25.85
2017-08-06T03:10:42.731Z,25.8
2017-08-06T03:11:51.633Z,25.75
2017-08-06T03:13:00.536Z,25.78
2017-08-06T03:14:09.442Z,25.76
2017-08-06T03:15:18.671Z,25.72
2017-08-06T03:16:27.895Z,25.72
2017-08-06T03:17:36.808Z,25.73
2017-08-06T03:18:45.710Z,25.73
2017-08-06T03:19:54.631Z,25.7
2017-08-06T03:21:03.530Z,25.73
2017-08-06T03:22:12.437Z,25.69
2017-08-06T03:23:21.339Z,25.76
2017-08-06T03:24:30.242Z,25.76
2017-08-06T03:25:39.147Z,25.76
2017-08-06T03:26:48.058Z,25.73
2017-08-06T03:27:56.962Z,25.75
2017-08-06T03:29:05.867Z,25.78
2017-08-06T03:30:14.778Z,25.75
2017-08-06T03:31:23.687Z,25.76
2017-08-06T03:32:32.596Z,25.73
2017-08-06T03:33:41.501Z,25.73
2017-08-06T03:34:50.411Z,25.68
2017-08-06T03:35:59.322Z,25.68
2017-08-06T03:37:08.551Z,25.68
2017-08-06T03:38:17.457Z,25.68
2017-08-06T03:39:26.363Z,25.75
2017-08-06T03:40:35.267Z,25.68
2017-08-06T03:41:44.166Z,25.68
2017-08-06T03:42:53.079Z,25.72
2017-08-06T03:44:02.315Z,25.7
2017-08-06T03:45:11.215Z,25.68
2017-08-06T03:46:20.120Z,25.7
2017-08-06T03:47:29.025Z,25.7
2017-08-06T03:48:37.931Z,25.68
2017-08-06T03:49:46.837Z,25.63
2017-08-06T03:50:55.751Z,25.7
2017-08-06T03:52:04.657Z,25.66
2017-08-06T03:53:13.568Z,25.66
2017-08-06T03:54:22.470Z,25.63
2017-08-06T03:55:31.385Z,25.58
2017-08-06T03:56:40.288Z,25.66
2017-08-06T03:57:49.192Z,25.65
2017-08-06T03:58:58.112Z,25.66
2017-08-06T04:00:07.016Z,25.61
2017-08-06T04:01:16.237Z,25.65
2017-08-06T04:02:25.144Z,25.63
2017-08-06T04:03:36.169Z,25.66
2017-08-06T04:04:45.826Z,25.66
2017-08-06T04:05:54.741Z,25.61
2017-08-06T04:07:03.641Z,25.66
2017-08-06T04:08:12.551Z,25.6
2017-08-06T04:09:21.778Z,25.61
2017-08-06T04:10:30.682Z,25.68
2017-08-06T04:11:39.592Z,25.61
2017-08-06T04:12:48.501Z,25.61
2017-08-06T04:13:57.407Z,25.65
2017-08-06T04:15:06.962Z,25.65
2017-08-06T04:16:16.188Z,25.61
2017-08-06T04:17:25.088Z,25.57
2017-08-06T04:18:33.993Z,25.55
2017-08-06T04:19:42.907Z,25.6
2017-08-06T04:20:51.810Z,25.6
2017-08-06T04:22:00.718Z,25.57
2017-08-06T04:23:09.623Z,25.57
2017-08-06T04:24:18.849Z,25.58
2017-08-06T04:25:27.755Z,25.57
2017-08-06T04:26:36.655Z,25.54
2017-08-06T04:27:45.557Z,25.66
2017-08-06T04:28:54.457Z,25.57
2017-08-06T04:30:03.365Z,25.6
2017-08-06T04:31:12.593Z,25.63
2017-08-06T04:32:21.495Z,25.58
2017-08-06T04:33:30.403Z,25.57
2017-08-06T04:34:39.307Z,25.63
2017-08-06T04:35:48.216Z,25.58
2017-08-06T04:36:57.111Z,25.63
2017-08-06T04:38:06.018Z,25.54
2017-08-06T04:39:14.931Z,25.54
2017-08-06T04:40:23.833Z,25.57
2017-08-06T04:41:32.747Z,25.61
2017-08-06T04:42:41.979Z,25.63
2017-08-06T04:43:50.889Z,25.57
2017-08-06T04:44:59.804Z,25.57
2017-08-06T04:46:09.081Z,25.57
2017-08-06T04:47:17.976Z,25.51
2017-08-06T04:48:26.879Z,25.5
2017-08-06T04:49:36.098Z,25.54
2017-08-06T04:50:45.011Z,25.53
2017-08-06T04:51:53.912Z,25.5
2017-08-06T04:53:02.815Z,25.57
2017-08-06T04:54:11.723Z,25.57
2017-08-06T04:55:20.626Z,25.53
2017-08-06T04:56:29.524Z,25.53
2017-08-06T04:57:38.428Z,25.57
2017-08-06T04:58:47.330Z,25.48
2017-08-06T04:59:56.555Z,25.53
2017-08-06T05:01:05.783Z,25.55
2017-08-06T05:02:14.718Z,25.48
2017-08-06T05:03:23.620Z,25.51
2017-08-06T05:04:32.539Z,25.48
2017-08-06T05:05:41.445Z,25.57
2017-08-06T05:06:50.340Z,25.53
2017-08-06T05:07:59.255Z,25.48
2017-08-06T05:09:08.185Z,25.55
2017-08-06T05:10:17.095Z,25.39
2017-08-06T05:11:25.993Z,25.43
2017-08-06T05:12:34.894Z,25.39
2017-08-06T05:13:43.805Z,25.54
2017-08-06T05:14:52.712Z,25.47
2017-08-06T05:16:01.627Z,25.5
2017-08-06T05:17:10.846Z,25.47
2017-08-06T05:18:19.758Z,25.43
2017-08-06T05:19:28.658Z,25.57
2017-08-06T05:20:37.561Z,25.47
2017-08-06T05:21:46.466Z,25.39
2017-08-06T05:22:55.380Z,25.42
2017-08-06T05:24:04.604Z,25.36
2017-08-06T05:25:13.510Z,25.47
2017-08-06T05:26:22.450Z,25.38
2017-08-06T05:27:31.356Z,25.43
2017-08-06T05:28:40.909Z,25.39
2017-08-06T05:29:49.818Z,25.46
2017-08-06T05:30:59.043Z,25.39
2017-08-06T05:32:07.950Z,25.42
2017-08-06T05:33:17.172Z,25.39
2017-08-06T05:34:26.393Z,25.48
2017-08-06T05:35:35.300Z,25.42
2017-08-06T05:36:44.202Z,25.5
2017-08-06T05:37:53.119Z,25.47
2017-08-06T05:39:02.023Z,25.48
2017-08-06T05:40:10.928Z,25.51
2017-08-06T05:41:19.828Z,25.58
2017-08-06T05:42:28.734Z,25.54
2017-08-06T05:43:37.634Z,25.53
2017-08-06T05:44:46.550Z,25.55
2017-08-06T05:45:55.452Z,25.61
2017-08-06T05:47:04.355Z,25.58
2017-08-06T05:48:13.259Z,25.6
2017-08-06T05:49:22.177Z,25.66
2017-08-06T05:50:31.092Z,25.63
2017-08-06T05:51:40.000Z,25.68
2017-08-06T05:52:48.912Z,25.61
2017-08-06T05:53:57.811Z,25.7
2017-08-06T05:55:07.039Z,25.72
2017-08-06T05:56:15.947Z,25.73
2017-08-06T05:57:24.851Z,25.79
2017-08-06T05:58:33.761Z,25.72
2017-08-06T05:59:42.675Z,25.76
2017-08-06T06:00:51.580Z,25.79
2017-08-06T06:02:00.497Z,25.76
2017-08-06T06:03:09.399Z,25.83
2017-08-06T06:04:18.320Z,25.73
2017-08-06T06:05:27.222Z,25.76
2017-08-06T06:06:36.128Z,25.8
2017-08-06T06:07:45.045Z,25.76
2017-08-06T06:08:53.946Z,25.8
2017-08-06T06:10:02.845Z,25.79
2017-08-06T06:11:11.747Z,25.76
2017-08-06T06:12:20.651Z,25.73
2017-08-06T06:13:29.558Z,25.76
2017-08-06T06:14:39.440Z,25.7
2017-08-06T06:15:48.343Z,25.73
2017-08-06T06:16:57.252Z,25.73
2017-08-06T06:18:06.481Z,25.78
2017-08-06T06:19:15.397Z,25.75
2017-08-06T06:20:24.301Z,25.76
2017-08-06T06:21:33.529Z,25.78
2017-08-06T06:22:42.429Z,25.76
2017-08-06T06:23:51.343Z,25.73
2017-08-06T06:25:00.565Z,25.69
2017-08-06T06:26:09.794Z,25.73
2017-08-06T06:27:18.717Z,25.75
2017-08-06T06:28:27.624Z,25.7
2017-08-06T06:29:36.862Z,25.75
2017-08-06T06:30:46.085Z,25.7
2017-08-06T06:31:54.993Z,25.69
2017-08-06T06:33:03.911Z,25.65
2017-08-06T06:34:12.826Z,25.66
2017-08-06T06:35:21.725Z,25.6
2017-08-06T06:36:30.626Z,25.79
2017-08-06T06:37:39.542Z,25.72
2017-08-06T06:38:48.765Z,25.72
2017-08-06T06:39:57.676Z,25.75
2017-08-06T06:41:06.597Z,25.69
2017-08-06T06:42:15.503Z,25.75
2017-08-06T06:43:24.736Z,25.69
2017-08-06T06:44:33.639Z,25.66
2017-08-06T06:45:42.544Z,25.76
2017-08-06T06:46:51.778Z,25.76
2017-08-06T06:48:00.696Z,25.69
2017-08-06T06:49:09.600Z,25.7
2017-08-06T06:50:18.517Z,25.75
2017-08-06T06:51:27.424Z,25.7
2017-08-06T06:52:36.671Z,25.7
2017-08-06T06:53:45.565Z,25.65
2017-08-06T06:54:54.482Z,25.6
2017-08-06T06:56:03.390Z,25.65
2017-08-06T06:57:12.296Z,25.66
2017-08-06T06:58:21.204Z,25.6
2017-08-06T06:59:30.436Z,25.6
2017-08-06T07:00:39.334Z,25.68
2017-08-06T07:01:48.262Z,25.58
2017-08-06T07:02:57.163Z,25.68
2017-08-06T07:04:06.074Z,25.58
2017-08-06T07:05:14.972Z,25.61
2017-08-06T07:06:23.890Z,25.65
2017-08-06T07:07:32.808Z,25.66
2017-08-06T07:08:41.711Z,25.55
2017-08-06T07:09:50.614Z,25.7
2017-08-06T07:10:59.513Z,25.63
2017-08-06T07:12:08.424Z,25.68
2017-08-06T07:13:17.337Z,25.65
2017-08-06T07:14:26.248Z,25.66
2017-08-06T07:15:35.153Z,25.63
2017-08-06T07:16:44.078Z,25.66
2017-08-06T07:17:52.982Z,25.65
2017-08-06T07:19:02.213Z,25.72
2017-08-06T07:20:11.113Z,25.7
2017-08-06T07:21:20.016Z,25.68
2017-08-06T07:22:28.924Z,25.65
2017-08-06T07:23:37.833Z,25.68
2017-08-06T07:24:46.732Z,25.61
2017-08-06T07:25:55.639Z,25.68
2017-08-06T07:27:04.541Z,25.61
2017-08-06T07:28:13.441Z,25.72
2017-08-06T07:29:22.345Z,25.69
2017-08-06T07:30:31.271Z,25.7
2017-08-06T07:31:40.174Z,25.73
2017-08-06T07:32:49.079Z,25.72
2017-08-06T07:33:57.981Z,25.76
2017-08-06T07:35:07.218Z,25.76
2017-08-06T07:36:16.130Z,25.75
2017-08-06T07:37:25.033Z,25.73
2017-08-06T07:38:33.933Z,25.79
2017-08-06T07:39:42.835Z,25.66
2017-08-06T07:40:51.736Z,25.72
2017-08-06T07:42:00.645Z,25.76
2017-08-06T07:43:09.559Z,25.75
2017-08-06T07:44:18.453Z,25.76
2017-08-06T07:45:27.367Z,25.76
2017-08-06T07:46:36.281Z,25.78
2017-08-06T07:47:45.185Z,25.73
2017-08-06T07:48:54.099Z,25.83
2017-08-06T07:50:03.013Z,25.78
2017-08-06T07:51:11.911Z,25.85
2017-08-06T07:52:20.829Z,25.76
2017-08-06T07:53:29.729Z,25.78
2017-08-06T07:54:38.645Z,25.78
2017-08-06T07:55:47.547Z,25.76
2017-08-06T07:56:56.456Z,25.8
2017-08-06T07:58:05.359Z,25.85
2017-08-06T07:59:14.269Z,25.78
2017-08-06T08:00:23.162Z,25.76
2017-08-06T08:01:32.065Z,25.85
2017-08-06T08:02:40.976Z,25.8
2017-08-06T08:03:49.884Z,25.88
2017-08-06T08:04:58.791Z,25.79
2017-08-06T08:06:07.695Z,25.84
2017-08-06T08:07:16.600Z,25.91
2017-08-06T08:08:25.499Z,25.85
2017-08-06T08:09:34.405Z,25.83
2017-08-06T08:10:43.323Z,25.9
2017-08-06T08:11:52.223Z,25.87
2017-08-06T08:13:01.120Z,25.87
2017-08-06T08:14:10.026Z,25.83
2017-08-06T08:15:18.920Z,25.9
2017-08-06T08:16:27.826Z,25.91
2017-08-06T08:17:36.729Z,25.9
2017-08-06T08:18:45.639Z,25.92
2017-08-06T08:19:54.540Z,25.91
2017-08-06T08:21:03.444Z,25.95
2017-08-06T08:22:12.354Z,25.88
2017-08-06T08:23:21.267Z,25.91
2017-08-06T08:24:30.171Z,25.91
2017-08-06T08:25:39.079Z,25.9
2017-08-06T08:26:47.989Z,25.94
2017-08-06T08:27:56.889Z,25.84
2017-08-06T08:29:05.793Z,25.94
2017-08-06T08:30:14.708Z,25.94
2017-08-06T08:31:23.618Z,25.85
2017-08-06T08:32:32.528Z,25.95
2017-08-06T08:33:41.424Z,25.98
2017-08-06T08:34:50.325Z,25.95
2017-08-06T08:35:59.228Z,25.91
2017-08-06T08:37:08.461Z,25.92
2017-08-06T08:38:17.367Z,25.97
2017-08-06T08:39:26.265Z,25.98
2017-08-06T08:40:35.181Z,25.97
2017-08-06T08:41:44.408Z,25.98
2017-08-06T08:42:53.317Z,25.97
2017-08-06T08:44:02.543Z,25.97
2017-08-06T08:45:11.456Z,26.02
2017-08-06T08:46:20.356Z,25.95
2017-08-06T08:47:29.258Z,25.98
2017-08-06T08:48:38.171Z,26
2017-08-06T08:49:47.414Z,26.02
2017-08-06T08:50:56.312Z,25.97
2017-08-06T08:52:05.221Z,26.06
2017-08-06T08:53:14.126Z,26.13
2017-08-06T08:54:23.032Z,26.12
2017-08-06T08:55:31.937Z,26.06
2017-08-06T08:56:40.848Z,26.07
2017-08-06T08:57:49.752Z,26.06
2017-08-06T08:58:58.663Z,26.12
2017-08-06T09:00:07.895Z,26.02
2017-08-06T09:01:16.794Z,26.07
2017-08-06T09:02:25.698Z,26.07
2017-08-06T09:03:34.923Z,26.09
2017-08-06T09:04:44.151Z,26.07
2017-08-06T09:05:53.061Z,26.05
2017-08-06T09:07:01.964Z,26.07
2017-08-06T09:08:10.863Z,26.03
2017-08-06T09:09:19.770Z,26.1
2017-08-06T09:10:28.677Z,26.13
2017-08-06T09:11:37.907Z,26.05
2017-08-06T09:12:47.133Z,26.13
2017-08-06T09:13:56.038Z,26.12
2017-08-06T09:15:04.944Z,26.21
2017-08-06T09:16:13.843Z,26.1
2017-08-06T09:17:23.075Z,26.16
2017-08-06T09:18:31.985Z,26
2017-08-06T09:19:40.896Z,26.12
2017-08-06T09:20:50.134Z,26.12
2017-08-06T09:21:59.039Z,26.12
2017-08-06T09:23:07.941Z,26.13
2017-08-06T09:24:16.847Z,26.09
2017-08-06T09:25:25.748Z,26.22
2017-08-06T09:26:34.656Z,26.09
2017-08-06T09:27:43.564Z,26.07
2017-08-06T09:28:52.474Z,26.17
2017-08-06T09:30:01.379Z,26.21
2017-08-06T09:31:10.279Z,26.21
2017-08-06T09:32:19.186Z,26.23
2017-08-06T09:33:28.098Z,26.21
2017-08-06T09:34:37.003Z,26.18
2017-08-06T09:35:45.910Z,26.23
2017-08-06T09:36:54.812Z,26.13
2017-08-06T09:38:03.718Z,26.18
2017-08-06T09:39:12.618Z,26.28
2017-08-06T09:40:21.525Z,26.26
2017-08-06T09:41:30.424Z,26.18
2017-08-06T09:42:39.338Z,26.23
2017-08-06T09:43:48.237Z,26.31
2017-08-06T09:44:57.143Z,26.26
2017-08-06T09:46:06.069Z,26.26
2017-08-06T09:47:14.986Z,26.22
2017-08-06T09:48:24.215Z,26.25
2017-08-06T09:49:33.122Z,26.29
2017-08-06T09:50:42.025Z,26.29
2017-08-06T09:51:50.928Z,26.28
2017-08-06T09:52:59.844Z,26.22
2017-08-06T09:54:09.077Z,26.33
2017-08-06T09:55:18.302Z,26.32
2017-08-06T09:56:27.202Z,26.4
2017-08-06T09:57:36.109Z,26.31
2017-08-06T09:58:45.012Z,26.32
2017-08-06T09:59:53.925Z,26.32
2017-08-06T10:01:02.827Z,26.32
2017-08-06T10:02:11.744Z,26.32
2017-08-06T10:03:20.645Z,26.28
2017-08-06T10:04:29.549Z,26.33
2017-08-06T10:05:38.455Z,26.36
2017-08-06T10:06:47.358Z,26.35
2017-08-06T10:07:56.264Z,26.36
2017-08-06T10:09:05.167Z,26.35
2017-08-06T10:10:14.082Z,26.31
2017-08-06T10:11:22.985Z,26.35
2017-08-06T10:12:31.887Z,26.36
2017-08-06T10:13:40.792Z,26.41
2017-08-06T10:14:49.704Z,26.47
2017-08-06T10:15:58.600Z,26.45
2017-08-06T10:17:07.497Z,26.43
2017-08-06T10:18:16.413Z,26.38
2017-08-06T10:19:25.327Z,26.36
2017-08-06T10:20:34.229Z,26.47
2017-08-06T10:21:43.136Z,26.43
2017-08-06T10:22:52.036Z,26.48
2017-08-06T10:24:00.945Z,26.35
2017-08-06T10:25:10.180Z,26.28
2017-08-06T10:26:19.081Z,26.36
2017-08-06T10:27:27.985Z,26.33
2017-08-06T10:28:36.898Z,26.45
2017-08-06T10:29:45.808Z,26.41
2017-08-06T10:30:55.041Z,26.4
2017-08-06T10:32:03.946Z,26.41
2017-08-06T10:33:12.851Z,26.47
2017-08-06T10:34:21.743Z,26.44
2017-08-06T10:35:30.653Z,26.35
2017-08-06T10:36:39.870Z,26.4
2017-08-06T10:37:48.781Z,26.5
2017-08-06T10:38:57.699Z,26.47
2017-08-06T10:40:06.608Z,26.5
2017-08-06T10:41:15.833Z,26.51
2017-08-06T10:42:24.740Z,26.51
2017-08-06T10:43:33.647Z,26.51
2017-08-06T10:44:42.552Z,26.48
2017-08-06T10:45:51.448Z,26.54
2017-08-06T10:47:00.354Z,26.48
2017-08-06T10:48:09.263Z,26.53
2017-08-06T10:49:18.183Z,26.48
2017-08-06T10:50:27.089Z,26.58
2017-08-06T10:51:36.005Z,26.6
2017-08-06T10:52:44.926Z,26.55
2017-08-06T10:53:53.825Z,26.55
2017-08-06T10:55:02.733Z,26.47
2017-08-06T10:56:11.636Z,26.54
2017-08-06T10:57:20.544Z,26.59
2017-08-06T10:58:29.448Z,26.59
2017-08-06T10:59:38.358Z,26.55
2017-08-06T11:00:47.261Z,26.54
2017-08-06T11:01:56.183Z,26.55
2017-08-06T11:03:05.090Z,26.53
2017-08-06T11:04:14.006Z,26.58
2017-08-06T11:05:22.914Z,26.55
2017-08-06T11:06:31.816Z,26.48
2017-08-06T11:07:40.727Z,26.53
2017-08-06T11:08:49.627Z,26.59
2017-08-06T11:09:58.539Z,26.59
2017-08-06T11:11:07.785Z,26.55
2017-08-06T11:12:16.688Z,26.53
2017-08-06T11:13:25.597Z,26.5
2017-08-06T11:14:34.515Z,26.55
2017-08-06T11:15:43.412Z,26.54
2017-08-06T11:16:52.320Z,26.58
2017-08-06T11:18:01.221Z,26.54
2017-08-06T11:19:10.126Z,26.54
2017-08-06T11:20:19.040Z,26.55
2017-08-06T11:21:28.275Z,26.55
2017-08-06T11:22:37.199Z,26.55
2017-08-06T11:23:46.105Z,26.55
2017-08-06T11:24:55.015Z,26.6
2017-08-06T11:26:03.913Z,26.59
2017-08-06T11:27:12.825Z,26.59
2017-08-06T11:28:21.729Z,26.65
2017-08-06T11:29:30.630Z,26.66
2017-08-06T11:30:39.864Z,26.62
2017-08-06T11:31:48.764Z,26.65
2017-08-06T11:32:57.680Z,26.68
2017-08-06T11:34:06.895Z,26.66
2017-08-06T11:35:15.810Z,26.69
2017-08-06T11:36:24.738Z,26.59
2017-08-06T11:37:33.647Z,26.58
2017-08-06T11:38:42.549Z,26.63
2017-08-06T11:39:51.456Z,26.63
2017-08-06T11:41:00.380Z,26.65
2017-08-06T11:42:09.283Z,26.7
2017-08-06T11:43:18.194Z,26.72
2017-08-06T11:44:27.101Z,26.63
2017-08-06T11:45:36.005Z,26.63
2017-08-06T11:46:44.902Z,26.58
2017-08-06T11:47:53.815Z,26.62
2017-08-06T11:49:02.714Z,26.68
2017-08-06T11:50:11.620Z,26.7
2017-08-06T11:51:20.532Z,26.69
2017-08-06T11:52:29.456Z,26.66
2017-08-06T11:53:38.679Z,26.72
2017-08-06T11:54:47.589Z,26.68
2017-08-06T11:55:56.492Z,26.72
2017-08-06T11:57:05.399Z,26.68
2017-08-06T11:58:14.311Z,26.72
2017-08-06T11:59:23.220Z,26.81
2017-08-06T12:00:32.117Z,26.78
2017-08-06T12:01:41.021Z,26.78
2017-08-06T12:02:49.919Z,26.78
2017-08-06T12:03:58.826Z,26.81
2017-08-06T12:05:07.735Z,26.77
2017-08-06T12:06:16.632Z,26.77
2017-08-06T12:07:25.540Z,26.8
2017-08-06T12:08:34.782Z,26.75
2017-08-06T12:09:43.689Z,26.85
2017-08-06T12:10:52.592Z,26.84
2017-08-06T12:12:01.498Z,26.84
2017-08-06T12:13:10.413Z,26.81
2017-08-06T12:14:19.330Z,26.84
2017-08-06T12:15:28.236Z,26.82
2017-08-06T12:16:37.145Z,26.82
2017-08-06T12:17:46.086Z,26.81
2017-08-06T12:18:54.993Z,26.82
2017-08-06T12:20:03.901Z,26.81
2017-08-06T12:21:12.808Z,26.88
2017-08-06T12:22:21.719Z,26.93
2017-08-06T12:23:30.615Z,26.81
2017-08-06T12:24:39.530Z,26.93
2017-08-06T12:25:48.433Z,26.85
2017-08-06T12:26:57.337Z,26.95
2017-08-06T12:28:06.242Z,26.9
2017-08-06T12:29:15.158Z,26.85
2017-08-06T12:30:24.065Z,26.84
2017-08-06T12:31:32.962Z,26.95
2017-08-06T12:32:41.866Z,26.91
2017-08-06T12:33:50.777Z,26.95
2017-08-06T12:34:59.678Z,26.9
2017-08-06T12:36:08.904Z,26.96
2017-08-06T12:37:17.822Z,26.99
2017-08-06T12:38:27.050Z,26.91
2017-08-06T12:39:35.965Z,26.97
2017-08-06T12:40:44.868Z,26.93
2017-08-06T12:41:53.761Z,26.93
2017-08-06T12:43:02.676Z,26.91
2017-08-06T12:44:11.579Z,26.97
2017-08-06T12:45:20.821Z,26.9
2017-08-06T12:46:29.733Z,26.91
2017-08-06T12:47:38.639Z,26.96
2017-08-06T12:48:47.557Z,26.96
2017-08-06T12:49:56.477Z,26.99
2017-08-06T12:51:05.382Z,26.93
2017-08-06T12:52:14.297Z,27.03
2017-08-06T12:53:23.525Z,26.99
2017-08-06T12:54:32.433Z,27.03
2017-08-06T12:55:41.338Z,27.06
2017-08-06T12:56:50.251Z,27.12
2017-08-06T12:57:59.159Z,27.17
2017-08-06T12:59:08.067Z,27.15
2017-08-06T13:00:16.974Z,27.1
2017-08-06T13:01:25.875Z,27.21
2017-08-06T13:02:34.782Z,27.12
2017-08-06T13:03:44.014Z,27.17
2017-08-06T13:04:52.923Z,27.12
2017-08-06T13:06:01.824Z,27.18
2017-08-06T13:07:10.733Z,27.17
2017-08-06T13:08:19.640Z,27.17
2017-08-06T13:09:28.554Z,27.22
2017-08-06T13:10:37.458Z,27.18
2017-08-06T13:11:46.367Z,27.21
2017-08-06T13:12:55.268Z,27.27
2017-08-06T13:14:04.177Z,27.24
2017-08-06T13:15:13.080Z,27.14
2017-08-06T13:16:21.984Z,27.22
2017-08-06T13:17:30.896Z,27.21
2017-08-06T13:18:39.797Z,27.27
2017-08-06T13:19:48.712Z,27.3
2017-08-06T13:20:57.618Z,27.24
2017-08-06T13:22:06.526Z,27.25
2017-08-06T13:23:15.431Z,27.24
2017-08-06T13:24:24.339Z,27.32
2017-08-06T13:25:33.249Z,27.28
2017-08-06T13:26:42.154Z,27.28
2017-08-06T13:27:51.053Z,27.22
2017-08-06T13:28:59.957Z,27.33
2017-08-06T13:30:09.187Z,27.33
2017-08-06T13:31:18.094Z,27.42
2017-08-06T13:32:26.999Z,27.27
2017-08-06T13:33:35.901Z,27.39
2017-08-06T13:34:44.804Z,27.34
2017-08-06T13:35:54.037Z,27.33
2017-08-06T13:37:02.944Z,27.39
2017-08-06T13:38:11.852Z,27.42
2017-08-06T13:39:20.759Z,27.4
2017-08-06T13:40:29.661Z,27.43
2017-08-06T13:41:38.571Z,27.4
2017-08-06T13:42:47.476Z,27.4
2017-08-06T13:43:56.384Z,27.58
2017-08-06T13:45:05.288Z,27.47
2017-08-06T13:46:14.196Z,27.46
2017-08-06T13:47:23.100Z,27.51
2017-08-06T13:48:32.008Z,27.52
2017-08-06T13:49:40.908Z,27.54
2017-08-06T13:50:50.148Z,27.54
2017-08-06T13:51:59.052Z,27.6
2017-08-06T13:53:07.954Z,27.62
2017-08-06T13:54:16.860Z,27.54
2017-08-06T13:55:25.765Z,27.55
2017-08-06T13:56:34.675Z,27.54
2017-08-06T13:57:43.583Z,27.52
2017-08-06T13:58:52.491Z,27.55
2017-08-06T14:00:01.394Z,27.59
2017-08-06T14:01:10.314Z,27.55
2017-08-06T14:02:19.210Z,27.58
2017-08-06T14:03:28.118Z,27.65
2017-08-06T14:04:37.029Z,27.6
2017-08-06T14:05:45.940Z,27.68
2017-08-06T14:06:54.838Z,27.65
2017-08-06T14:08:03.744Z,27.66
2017-08-06T14:09:12.654Z,27.6
2017-08-06T14:10:21.563Z,27.71
2017-08-06T14:11:30.469Z,27.66
2017-08-06T14:12:39.370Z,27.71
2017-08-06T14:13:48.274Z,27.72
2017-08-06T14:14:57.185Z,27.63
2017-08-06T14:16:06.094Z,27.71
2017-08-06T14:17:14.999Z,27.74
2017-08-06T14:18:23.906Z,27.75
2017-08-06T14:19:32.811Z,27.74
2017-08-06T14:20:41.716Z,27.71
2017-08-06T14:21:50.643Z,27.8
2017-08-06T14:22:59.553Z,27.81
2017-08-06T14:24:08.458Z,27.89
2017-08-06T14:25:17.370Z,27.85
2017-08-06T14:26:26.278Z,27.87
2017-08-06T14:27:35.201Z,27.78
2017-08-06T14:28:44.106Z,27.87
2017-08-06T14:29:53.017Z,27.78
2017-08-06T14:31:01.921Z,27.78
2017-08-06T14:32:10.847Z,27.89
2017-08-06T14:33:19.746Z,27.85
2017-08-06T14:34:28.653Z,27.84
2017-08-06T14:35:37.564Z,27.81
2017-08-06T14:36:46.476Z,27.8
2017-08-06T14:37:55.380Z,27.84
2017-08-06T14:39:04.299Z,27.89
2017-08-06T14:40:13.201Z,27.84
2017-08-06T14:41:22.106Z,27.84
2017-08-06T14:42:31.015Z,27.82
2017-08-06T14:43:39.918Z,27.9
2017-08-06T14:44:48.820Z,27.92
2017-08-06T14:45:57.730Z,27.99
2017-08-06T14:47:06.643Z,27.99
2017-08-06T14:48:15.548Z,27.97
2017-08-06T14:49:24.450Z,28.02
2017-08-06T14:50:33.350Z,27.99
2017-08-06T14:51:42.261Z,28.03